• Join FlightAware (Why Join?)
  • Login
  • US Flag 
10:02PM EDT


 

Airport Tracker/Info


-or-


 

Live Flight TrackerFlight Track Log ✈ CSN6919 ✈ 20-May-2012 ✈ ZLXY / XIY - ZSHC / HGH

Flight Track Log - Related Links

Times and Time Zones

All times are in EDT time to prevent confusion due to time zone crossing. See the CSN6919 flight status page for this flight to view local times or setup timezone preferences in your user account.

Time Position Orientation Groundspeed Altitude Reporting Facility
EDT Latitude Longitude Course Direction KTS MPH feet Rate Location/Type
10:47AM 33.6417 111.3294 111° Southeast  Level Estimated
10:48AM 33.5880 111.4936 111° Southeast  Level Estimated
10:49AM 33.5341 111.6577 112° Southeast  Level Estimated
10:50AM 33.4800 111.8215 112° Southeast  Level Estimated
10:51AM 33.4256 111.9852 112° Southeast  Level Estimated
10:52AM 33.3711 112.1487 112° Southeast  Level Estimated
10:53AM 33.3163 112.3119 112° Southeast  Level Estimated
10:54AM 33.2614 112.4749 112° Southeast  Level Estimated
10:55AM 33.2062 112.6378 112° Southeast  Level Estimated
10:56AM 33.1508 112.8004 112° Southeast  Level Estimated
10:57AM 33.0952 112.9628 112° Southeast  Level Estimated
10:58AM 33.0394 113.1250 112° Southeast  Level Estimated
10:59AM 32.9833 113.2870 112° Southeast  Level Estimated
11:00AM 32.9271 113.4488 113° Southeast  Level Estimated
11:01AM 32.8707 113.6104 113° Southeast  Level Estimated
11:02AM 32.8140 113.7718 113° Southeast  Level Estimated
11:03AM 32.7572 113.9330 113° Southeast  Level Estimated
11:04AM 32.7001 114.0940 113° Southeast  Level Estimated
11:05AM 32.6428 114.2548 113° Southeast  Level Estimated
11:06AM 32.5854 114.4153 113° Southeast  Level Estimated
11:07AM 32.5277 114.5757 113° Southeast  Level Estimated
11:08AM 32.4698 114.7358 113° Southeast  Level Estimated
11:09AM 32.4117 114.8958 113° Southeast  Level Estimated
11:10AM 32.3535 115.0555 113° Southeast  Level Estimated
11:11AM 32.2950 115.2151 113° Southeast  Level Estimated
11:12AM 32.2363 115.3744 114° Southeast  Level Estimated
11:13AM 32.1774 115.5335 114° Southeast  Level Estimated
11:14AM 32.1183 115.6924 114° Southeast  Level Estimated
11:15AM 32.0590 115.8511 114° Southeast  Level Estimated
11:16AM 31.9995 116.0097 114° Southeast  Level Estimated
11:17AM 31.9399 116.1680 114° Southeast  Level Estimated
11:18AM 31.8800 116.3260 114° Southeast  Level Estimated
11:19AM 31.8199 116.4839 114° Southeast  Level Estimated
11:20AM 31.7597 116.6416 114° Southeast  Level Estimated
11:21AM 31.6992 116.7991 114° Southeast  Level Estimated
11:22AM 31.6386 116.9564 114° Southeast  Level Estimated
11:23AM 31.5777 117.1134 114° Southeast  Level Estimated
11:24AM 31.5167 117.2703 115° Southeast  Level Estimated
11:25AM 31.4555 117.4269 115° Southeast  Level Estimated
11:26AM 31.3940 117.5834 115° Southeast  Level Estimated
11:27AM 31.3324 117.7396 115° Southeast  Level Estimated
11:28AM 31.2706 117.8957 115° Southeast  Level Estimated
11:29AM 31.2087 118.0515 115° Southeast  Level Estimated
11:30AM 31.1465 118.2072 115° Southeast  Level Estimated
11:31AM 31.0841 118.3626 115° Southeast  Level Estimated
11:32AM 31.0216 118.5178 115° Southeast  Level Estimated
11:33AM 30.9589 118.6728 115° Southeast  Level Estimated
11:34AM 30.8960 118.8276 115° Southeast  Level Estimated
11:35AM 30.8328 118.9822 115° Southeast  Level Estimated
11:36AM 30.7696 119.1367 116° Southeast  Level Estimated
11:37AM 30.7061 119.2909 116° Southeast  Level Estimated
11:38AM 30.6425 119.4449 116° Southeast  Level Estimated
11:39AM 30.5786 119.5987 116° Southeast  Level Estimated
11:40AM 30.5146 119.7523 116° Southeast  Level Estimated
11:41AM 30.4504 119.9057 116° Southeast  Level Estimated
11:42AM 30.3861 120.0589 116° Southeast  Level Estimated
11:43AM 30.3215 120.2119 116° Southeast  Level Estimated
11:44AM 30.2568 120.3646 116° Southeast  Level Estimated
11:45AM 30.1919 120.5172 296° West  Level Estimated
11:46AM 30.2568 120.3646 116° Southeast  Level Estimated
11:47AM 30.1919 120.5172 296° West  Level Estimated
11:48AM 30.2568 120.3646 116° Southeast  Level Estimated
11:49AM 30.1919 120.5172 296° West  Level Estimated
11:50AM 30.2568 120.3646 116° Southeast  Level Estimated
11:51AM 30.1919 120.5172 296° West  Level Estimated
11:52AM 30.2568 120.3646 116° Southeast  Level Estimated
11:53AM 30.1919 120.5172 296° West  Level Estimated
11:54AM 30.2568 120.3646 116° Southeast  Level Estimated
11:55AM 30.1919 120.5172 296° West  Level Estimated
11:56AM 30.2568 120.3646 116° Southeast  Level Estimated
11:57AM 30.1919 120.5172 296° West  Level Estimated
11:58AM 30.2568 120.3646 116° Southeast  Level Estimated
11:59AM 30.1919 120.5172 296° West  Level Estimated
12:00PM 30.2568 120.3646 296° West  Level Estimated